sensor_id;sensor_type;location;lat;lon;timestamp;P1;durP1;ratioP1;P2;durP2;ratioP2
85807;SDS011;76250;48.718;9.000;2024-02-26T00:00:25;2.43;;;2.23;;
85807;SDS011;76250;48.718;9.000;2024-02-26T00:02:53;2.10;;;2.00;;
85807;SDS011;76250;48.718;9.000;2024-02-26T00:05:21;3.30;;;2.30;;
85807;SDS011;76250;48.718;9.000;2024-02-26T00:07:49;2.20;;;2.00;;
85807;SDS011;76250;48.718;9.000;2024-02-26T00:10:17;2.13;;;1.83;;
85807;SDS011;76250;48.718;9.000;2024-02-26T00:12:50;2.10;;;2.00;;
85807;SDS011;76250;48.718;9.000;2024-02-26T00:15:18;1.60;;;1.50;;
85807;SDS011;76250;48.718;9.000;2024-02-26T00:17:46;1.97;;;1.87;;
85807;SDS011;76250;48.718;9.000;2024-02-26T00:20:14;1.73;;;1.63;;
85807;SDS011;76250;48.718;9.000;2024-02-26T00:22:42;1.83;;;1.70;;
85807;SDS011;76250;48.718;9.000;2024-02-26T00:25:10;2.03;;;1.93;;
85807;SDS011;76250;48.718;9.000;2024-02-26T00:27:39;2.00;;;1.90;;
85807;SDS011;76250;48.718;9.000;2024-02-26T00:30:09;1.83;;;1.73;;
85807;SDS011;76250;48.718;9.000;2024-02-26T00:32:37;1.70;;;1.60;;
85807;SDS011;76250;48.718;9.000;2024-02-26T00:35:06;1.67;;;1.57;;
85807;SDS011;76250;48.718;9.000;2024-02-26T00:37:34;1.80;;;1.70;;
85807;SDS011;76250;48.718;9.000;2024-02-26T00:40:02;1.90;;;1.80;;
85807;SDS011;76250;48.718;9.000;2024-02-26T00:42:31;1.80;;;1.70;;
85807;SDS011;76250;48.718;9.000;2024-02-26T00:44:58;2.10;;;1.90;;
85807;SDS011;76250;48.718;9.000;2024-02-26T00:47:26;1.30;;;1.30;;
85807;SDS011;76250;48.718;9.000;2024-02-26T00:49:55;2.00;;;1.90;;
85807;SDS011;76250;48.718;9.000;2024-02-26T00:52:23;1.73;;;1.63;;
85807;SDS011;76250;48.718;9.000;2024-02-26T00:54:51;1.77;;;1.67;;
85807;SDS011;76250;48.718;9.000;2024-02-26T00:57:19;1.60;;;1.50;;
85807;SDS011;76250;48.718;9.000;2024-02-26T00:59:47;2.00;;;1.80;;
85807;SDS011;76250;48.718;9.000;2024-02-26T01:02:15;1.70;;;1.60;;
85807;SDS011;76250;48.718;9.000;2024-02-26T01:04:43;1.80;;;1.70;;
85807;SDS011;76250;48.718;9.000;2024-02-26T01:07:12;1.80;;;1.70;;
85807;SDS011;76250;48.718;9.000;2024-02-26T01:09:40;1.70;;;1.60;;
85807;SDS011;76250;48.718;9.000;2024-02-26T01:12:08;1.60;;;1.50;;
85807;SDS011;76250;48.718;9.000;2024-02-26T01:14:36;1.57;;;1.47;;
85807;SDS011;76250;48.718;9.000;2024-02-26T01:17:04;1.73;;;1.63;;
85807;SDS011;76250;48.718;9.000;2024-02-26T01:19:32;1.30;;;1.30;;
85807;SDS011;76250;48.718;9.000;2024-02-26T01:22:00;1.60;;;1.50;;
85807;SDS011;76250;48.718;9.000;2024-02-26T01:24:29;1.53;;;1.43;;
85807;SDS011;76250;48.718;9.000;2024-02-26T01:26:57;1.50;;;1.40;;
85807;SDS011;76250;48.718;9.000;2024-02-26T01:29:25;1.53;;;1.47;;
85807;SDS011;76250;48.718;9.000;2024-02-26T01:31:53;1.50;;;1.40;;
85807;SDS011;76250;48.718;9.000;2024-02-26T01:34:22;1.60;;;1.50;;
85807;SDS011;76250;48.718;9.000;2024-02-26T01:36:50;1.80;;;1.70;;
85807;SDS011;76250;48.718;9.000;2024-02-26T01:39:18;1.47;;;1.40;;
85807;SDS011;76250;48.718;9.000;2024-02-26T01:41:46;1.60;;;1.50;;
85807;SDS011;76250;48.718;9.000;2024-02-26T01:44:14;1.70;;;1.60;;
85807;SDS011;76250;48.718;9.000;2024-02-26T01:46:42;2.03;;;1.83;;
85807;SDS011;76250;48.718;9.000;2024-02-26T01:49:11;1.90;;;1.80;;
85807;SDS011;76250;48.718;9.000;2024-02-26T01:51:41;1.70;;;1.60;;
85807;SDS011;76250;48.718;9.000;2024-02-26T01:54:11;1.90;;;1.80;;
85807;SDS011;76250;48.718;9.000;2024-02-26T01:56:39;1.93;;;1.83;;
85807;SDS011;76250;48.718;9.000;2024-02-26T01:59:08;1.70;;;1.60;;
85807;SDS011;76250;48.718;9.000;2024-02-26T02:01:36;2.10;;;1.90;;
85807;SDS011;76250;48.718;9.000;2024-02-26T02:04:09;2.27;;;2.17;;
85807;SDS011;76250;48.718;9.000;2024-02-26T02:06:37;2.07;;;1.90;;
85807;SDS011;76250;48.718;9.000;2024-02-26T02:09:05;1.77;;;1.67;;
85807;SDS011;76250;48.718;9.000;2024-02-26T02:11:34;2.00;;;1.80;;
85807;SDS011;76250;48.718;9.000;2024-02-26T02:14:03;2.00;;;1.80;;
85807;SDS011;76250;48.718;9.000;2024-02-26T02:16:31;1.70;;;1.60;;
85807;SDS011;76250;48.718;9.000;2024-02-26T02:18:59;1.60;;;1.50;;
85807;SDS011;76250;48.718;9.000;2024-02-26T02:21:27;1.50;;;1.40;;
85807;SDS011;76250;48.718;9.000;2024-02-26T02:23:55;1.40;;;1.30;;
85807;SDS011;76250;48.718;9.000;2024-02-26T02:26:23;1.40;;;1.30;;
85807;SDS011;76250;48.718;9.000;2024-02-26T02:28:51;1.80;;;1.43;;
85807;SDS011;76250;48.718;9.000;2024-02-26T02:31:19;1.43;;;1.33;;
85807;SDS011;76250;48.718;9.000;2024-02-26T02:33:47;1.17;;;1.17;;
85807;SDS011;76250;48.718;9.000;2024-02-26T02:36:16;1.07;;;1.07;;
85807;SDS011;76250;48.718;9.000;2024-02-26T02:38:50;1.00;;;1.00;;
85807;SDS011;76250;48.718;9.000;2024-02-26T02:41:18;0.90;;;0.90;;
85807;SDS011;76250;48.718;9.000;2024-02-26T02:43:47;0.97;;;0.97;;
85807;SDS011;76250;48.718;9.000;2024-02-26T02:46:15;1.00;;;1.00;;
85807;SDS011;76250;48.718;9.000;2024-02-26T02:48:43;0.97;;;0.97;;
85807;SDS011;76250;48.718;9.000;2024-02-26T02:51:12;1.37;;;1.20;;
85807;SDS011;76250;48.718;9.000;2024-02-26T02:53:40;1.30;;;1.30;;
85807;SDS011;76250;48.718;9.000;2024-02-26T02:56:08;1.40;;;1.30;;
85807;SDS011;76250;48.718;9.000;2024-02-26T02:58:36;1.20;;;1.20;;
85807;SDS011;76250;48.718;9.000;2024-02-26T03:01:04;0.97;;;0.97;;
85807;SDS011;76250;48.718;9.000;2024-02-26T03:03:32;1.23;;;1.13;;
85807;SDS011;76250;48.718;9.000;2024-02-26T03:06:00;1.33;;;1.30;;
85807;SDS011;76250;48.718;9.000;2024-02-26T03:08:28;1.30;;;1.20;;
85807;SDS011;76250;48.718;9.000;2024-02-26T03:10:58;1.00;;;1.00;;
85807;SDS011;76250;48.718;9.000;2024-02-26T03:13:27;0.93;;;0.93;;
85807;SDS011;76250;48.718;9.000;2024-02-26T03:15:54;1.10;;;1.10;;
85807;SDS011;76250;48.718;9.000;2024-02-26T03:18:22;1.50;;;1.40;;
85807;SDS011;76250;48.718;9.000;2024-02-26T03:20:51;1.10;;;1.00;;
85807;SDS011;76250;48.718;9.000;2024-02-26T03:23:19;0.90;;;0.90;;
85807;SDS011;76250;48.718;9.000;2024-02-26T03:25:48;0.83;;;0.83;;
85807;SDS011;76250;48.718;9.000;2024-02-26T03:28:16;0.90;;;0.90;;
85807;SDS011;76250;48.718;9.000;2024-02-26T03:30:44;0.80;;;0.80;;
85807;SDS011;76250;48.718;9.000;2024-02-26T03:33:12;0.90;;;0.90;;
85807;SDS011;76250;48.718;9.000;2024-02-26T03:35:40;0.90;;;0.90;;
85807;SDS011;76250;48.718;9.000;2024-02-26T03:38:08;0.83;;;0.83;;
85807;SDS011;76250;48.718;9.000;2024-02-26T03:40:36;0.80;;;0.80;;
85807;SDS011;76250;48.718;9.000;2024-02-26T03:43:03;0.90;;;0.90;;
85807;SDS011;76250;48.718;9.000;2024-02-26T03:45:34;0.90;;;0.90;;
85807;SDS011;76250;48.718;9.000;2024-02-26T03:48:04;0.90;;;0.90;;
85807;SDS011;76250;48.718;9.000;2024-02-26T03:50:33;0.80;;;0.80;;
85807;SDS011;76250;48.718;9.000;2024-02-26T03:53:01;0.80;;;0.80;;
85807;SDS011;76250;48.718;9.000;2024-02-26T03:55:29;0.77;;;0.77;;
85807;SDS011;76250;48.718;9.000;2024-02-26T03:57:58;0.80;;;0.80;;
85807;SDS011;76250;48.718;9.000;2024-02-26T04:00:26;0.97;;;0.97;;
85807;SDS011;76250;48.718;9.000;2024-02-26T04:02:56;0.90;;;0.90;;
85807;SDS011;76250;48.718;9.000;2024-02-26T04:05:24;0.80;;;0.80;;
85807;SDS011;76250;48.718;9.000;2024-02-26T04:07:52;0.90;;;0.90;;
85807;SDS011;76250;48.718;9.000;2024-02-26T04:10:20;0.90;;;0.90;;
85807;SDS011;76250;48.718;9.000;2024-02-26T04:12:48;0.80;;;0.80;;
85807;SDS011;76250;48.718;9.000;2024-02-26T04:15:16;0.90;;;0.90;;
85807;SDS011;76250;48.718;9.000;2024-02-26T04:17:44;0.80;;;0.80;;
85807;SDS011;76250;48.718;9.000;2024-02-26T04:20:13;0.80;;;0.80;;
85807;SDS011;76250;48.718;9.000;2024-02-26T04:22:43;0.80;;;0.80;;
85807;SDS011;76250;48.718;9.000;2024-02-26T04:25:11;0.60;;;0.60;;
85807;SDS011;76250;48.718;9.000;2024-02-26T04:27:39;0.90;;;0.90;;
85807;SDS011;76250;48.718;9.000;2024-02-26T04:30:07;0.80;;;0.80;;
85807;SDS011;76250;48.718;9.000;2024-02-26T04:32:36;0.90;;;0.90;;
85807;SDS011;76250;48.718;9.000;2024-02-26T04:35:04;0.83;;;0.83;;
85807;SDS011;76250;48.718;9.000;2024-02-26T04:37:33;1.47;;;0.90;;
85807;SDS011;76250;48.718;9.000;2024-02-26T04:40:01;0.80;;;0.80;;
85807;SDS011;76250;48.718;9.000;2024-02-26T04:42:29;0.90;;;0.90;;
85807;SDS011;76250;48.718;9.000;2024-02-26T04:44:57;0.80;;;0.80;;
85807;SDS011;76250;48.718;9.000;2024-02-26T04:47:24;0.90;;;0.90;;
85807;SDS011;76250;48.718;9.000;2024-02-26T04:49:52;0.70;;;0.70;;
85807;SDS011;76250;48.718;9.000;2024-02-26T04:52:21;1.00;;;1.00;;
85807;SDS011;76250;48.718;9.000;2024-02-26T04:54:49;1.30;;;1.03;;
85807;SDS011;76250;48.718;9.000;2024-02-26T04:57:17;1.10;;;1.10;;
85807;SDS011;76250;48.718;9.000;2024-02-26T04:59:46;1.00;;;1.00;;
85807;SDS011;76250;48.718;9.000;2024-02-26T05:02:15;1.00;;;1.00;;
85807;SDS011;76250;48.718;9.000;2024-02-26T05:04:43;0.90;;;0.90;;
85807;SDS011;76250;48.718;9.000;2024-02-26T05:07:11;0.90;;;0.90;;
85807;SDS011;76250;48.718;9.000;2024-02-26T05:09:41;1.17;;;1.10;;
85807;SDS011;76250;48.718;9.000;2024-02-26T05:12:11;0.97;;;0.97;;
85807;SDS011;76250;48.718;9.000;2024-02-26T05:14:39;1.17;;;1.07;;
85807;SDS011;76250;48.718;9.000;2024-02-26T05:17:08;1.23;;;1.23;;
85807;SDS011;76250;48.718;9.000;2024-02-26T05:19:36;1.10;;;1.10;;
85807;SDS011;76250;48.718;9.000;2024-02-26T05:22:04;1.00;;;1.00;;
85807;SDS011;76250;48.718;9.000;2024-02-26T05:24:32;1.00;;;1.00;;
85807;SDS011;76250;48.718;9.000;2024-02-26T05:27:00;1.00;;;1.00;;
85807;SDS011;76250;48.718;9.000;2024-02-26T05:29:29;1.10;;;1.10;;
85807;SDS011;76250;48.718;9.000;2024-02-26T05:31:57;1.00;;;1.00;;
85807;SDS011;76250;48.718;9.000;2024-02-26T05:34:25;1.50;;;1.40;;
85807;SDS011;76250;48.718;9.000;2024-02-26T05:36:53;1.13;;;1.13;;
85807;SDS011;76250;48.718;9.000;2024-02-26T05:39:21;1.17;;;1.17;;
85807;SDS011;76250;48.718;9.000;2024-02-26T05:41:49;1.00;;;1.00;;
85807;SDS011;76250;48.718;9.000;2024-02-26T05:44:17;1.00;;;1.00;;
85807;SDS011;76250;48.718;9.000;2024-02-26T05:46:45;1.20;;;1.20;;
85807;SDS011;76250;48.718;9.000;2024-02-26T05:49:13;1.03;;;1.03;;
85807;SDS011;76250;48.718;9.000;2024-02-26T05:51:41;1.50;;;1.40;;
85807;SDS011;76250;48.718;9.000;2024-02-26T05:54:09;1.27;;;1.20;;
85807;SDS011;76250;48.718;9.000;2024-02-26T05:56:37;1.30;;;1.20;;
85807;SDS011;76250;48.718;9.000;2024-02-26T05:59:05;1.17;;;1.13;;
85807;SDS011;76250;48.718;9.000;2024-02-26T06:01:33;1.07;;;1.07;;
85807;SDS011;76250;48.718;9.000;2024-02-26T06:04:01;1.13;;;1.13;;
85807;SDS011;76250;48.718;9.000;2024-02-26T06:06:30;1.10;;;1.10;;
85807;SDS011;76250;48.718;9.000;2024-02-26T06:09:04;1.20;;;1.20;;
85807;SDS011;76250;48.718;9.000;2024-02-26T06:11:32;1.27;;;1.27;;
85807;SDS011;76250;48.718;9.000;2024-02-26T06:14:00;1.20;;;1.20;;
85807;SDS011;76250;48.718;9.000;2024-02-26T06:16:30;1.20;;;1.20;;
85807;SDS011;76250;48.718;9.000;2024-02-26T06:18:58;1.60;;;1.50;;
85807;SDS011;76250;48.718;9.000;2024-02-26T06:21:28;1.30;;;1.20;;
85807;SDS011;76250;48.718;9.000;2024-02-26T06:23:56;1.13;;;1.13;;
85807;SDS011;76250;48.718;9.000;2024-02-26T06:26:24;1.33;;;1.30;;
85807;SDS011;76250;48.718;9.000;2024-02-26T06:28:55;1.50;;;1.40;;
85807;SDS011;76250;48.718;9.000;2024-02-26T06:31:23;1.67;;;1.40;;
85807;SDS011;76250;48.718;9.000;2024-02-26T06:33:54;1.37;;;1.37;;
85807;SDS011;76250;48.718;9.000;2024-02-26T06:36:24;1.40;;;1.30;;
85807;SDS011;76250;48.718;9.000;2024-02-26T06:38:53;1.47;;;1.37;;
85807;SDS011;76250;48.718;9.000;2024-02-26T06:41:22;1.70;;;1.60;;
85807;SDS011;76250;48.718;9.000;2024-02-26T06:43:54;1.60;;;1.50;;
85807;SDS011;76250;48.718;9.000;2024-02-26T06:46:22;1.53;;;1.43;;
85807;SDS011;76250;48.718;9.000;2024-02-26T06:48:51;1.73;;;1.63;;
85807;SDS011;76250;48.718;9.000;2024-02-26T06:51:22;1.70;;;1.60;;
85807;SDS011;76250;48.718;9.000;2024-02-26T06:53:50;1.40;;;1.40;;
85807;SDS011;76250;48.718;9.000;2024-02-26T06:56:18;1.70;;;1.60;;
85807;SDS011;76250;48.718;9.000;2024-02-26T06:58:46;1.60;;;1.50;;
85807;SDS011;76250;48.718;9.000;2024-02-26T07:01:14;1.70;;;1.60;;
85807;SDS011;76250;48.718;9.000;2024-02-26T07:03:42;1.70;;;1.60;;
85807;SDS011;76250;48.718;9.000;2024-02-26T07:06:10;1.80;;;1.70;;
85807;SDS011;76250;48.718;9.000;2024-02-26T07:08:40;1.90;;;1.80;;
85807;SDS011;76250;48.718;9.000;2024-02-26T07:11:08;1.70;;;1.60;;
85807;SDS011;76250;48.718;9.000;2024-02-26T07:13:37;1.50;;;1.40;;
85807;SDS011;76250;48.718;9.000;2024-02-26T07:16:05;1.50;;;1.40;;
85807;SDS011;76250;48.718;9.000;2024-02-26T07:18:36;1.60;;;1.50;;
85807;SDS011;76250;48.718;9.000;2024-02-26T07:21:06;1.50;;;1.40;;
85807;SDS011;76250;48.718;9.000;2024-02-26T07:23:34;1.50;;;1.40;;
85807;SDS011;76250;48.718;9.000;2024-02-26T07:26:02;1.33;;;1.23;;
85807;SDS011;76250;48.718;9.000;2024-02-26T07:28:30;1.33;;;1.30;;
85807;SDS011;76250;48.718;9.000;2024-02-26T07:30:58;1.70;;;1.60;;
85807;SDS011;76250;48.718;9.000;2024-02-26T07:33:26;1.43;;;1.40;;
85807;SDS011;76250;48.718;9.000;2024-02-26T07:35:55;1.47;;;1.40;;
85807;SDS011;76250;48.718;9.000;2024-02-26T07:38:22;1.37;;;1.27;;
85807;SDS011;76250;48.718;9.000;2024-02-26T07:41:08;2.10;;;1.17;;
85807;SDS011;76250;48.718;9.000;2024-02-26T07:43:36;1.50;;;1.40;;
85807;SDS011;76250;48.718;9.000;2024-02-26T07:46:04;1.47;;;1.37;;
85807;SDS011;76250;48.718;9.000;2024-02-26T07:48:32;2.10;;;1.50;;
85807;SDS011;76250;48.718;9.000;2024-02-26T07:51:01;1.90;;;1.77;;
85807;SDS011;76250;48.718;9.000;2024-02-26T07:53:30;2.00;;;1.80;;
85807;SDS011;76250;48.718;9.000;2024-02-26T07:55:58;1.67;;;1.57;;
85807;SDS011;76250;48.718;9.000;2024-02-26T07:58:26;1.60;;;1.50;;
85807;SDS011;76250;48.718;9.000;2024-02-26T08:00:54;1.60;;;1.50;;
85807;SDS011;76250;48.718;9.000;2024-02-26T08:03:23;1.53;;;1.43;;
85807;SDS011;76250;48.718;9.000;2024-02-26T08:05:51;1.30;;;1.30;;
85807;SDS011;76250;48.718;9.000;2024-02-26T08:08:19;1.50;;;1.40;;
85807;SDS011;76250;48.718;9.000;2024-02-26T08:10:47;1.70;;;1.60;;
85807;SDS011;76250;48.718;9.000;2024-02-26T08:13:15;1.23;;;1.23;;
85807;SDS011;76250;48.718;9.000;2024-02-26T08:15:43;1.60;;;1.50;;
85807;SDS011;76250;48.718;9.000;2024-02-26T08:18:11;1.33;;;1.23;;
85807;SDS011;76250;48.718;9.000;2024-02-26T08:20:39;1.30;;;1.20;;
85807;SDS011;76250;48.718;9.000;2024-02-26T08:23:08;1.37;;;1.27;;
85807;SDS011;76250;48.718;9.000;2024-02-26T08:25:36;1.53;;;1.40;;
85807;SDS011;76250;48.718;9.000;2024-02-26T08:28:04;1.30;;;1.30;;
85807;SDS011;76250;48.718;9.000;2024-02-26T08:30:32;1.43;;;1.33;;
85807;SDS011;76250;48.718;9.000;2024-02-26T08:33:01;1.27;;;1.23;;
85807;SDS011;76250;48.718;9.000;2024-02-26T08:35:30;1.47;;;1.40;;
85807;SDS011;76250;48.718;9.000;2024-02-26T08:37:58;1.47;;;1.40;;
85807;SDS011;76250;48.718;9.000;2024-02-26T08:40:26;1.50;;;1.40;;
85807;SDS011;76250;48.718;9.000;2024-02-26T08:42:54;1.60;;;1.50;;
85807;SDS011;76250;48.718;9.000;2024-02-26T08:45:22;1.43;;;1.40;;
85807;SDS011;76250;48.718;9.000;2024-02-26T08:47:53;1.30;;;1.30;;
85807;SDS011;76250;48.718;9.000;2024-02-26T08:50:22;1.20;;;1.20;;
85807;SDS011;76250;48.718;9.000;2024-02-26T08:52:50;1.20;;;1.20;;
85807;SDS011;76250;48.718;9.000;2024-02-26T08:55:20;1.20;;;1.20;;
85807;SDS011;76250;48.718;9.000;2024-02-26T08:57:48;1.43;;;1.33;;
85807;SDS011;76250;48.718;9.000;2024-02-26T09:00:16;1.30;;;1.23;;
85807;SDS011;76250;48.718;9.000;2024-02-26T09:02:48;1.50;;;1.40;;
85807;SDS011;76250;48.718;9.000;2024-02-26T09:05:17;1.30;;;1.30;;
85807;SDS011;76250;48.718;9.000;2024-02-26T09:07:45;1.33;;;1.23;;
85807;SDS011;76250;48.718;9.000;2024-02-26T09:10:14;1.30;;;1.30;;
85807;SDS011;76250;48.718;9.000;2024-02-26T09:12:42;1.43;;;1.33;;
85807;SDS011;76250;48.718;9.000;2024-02-26T09:15:10;1.30;;;1.30;;
85807;SDS011;76250;48.718;9.000;2024-02-26T09:17:38;1.20;;;1.20;;
85807;SDS011;76250;48.718;9.000;2024-02-26T09:20:06;1.07;;;1.07;;
85807;SDS011;76250;48.718;9.000;2024-02-26T09:22:36;1.30;;;1.30;;
85807;SDS011;76250;48.718;9.000;2024-02-26T09:25:05;1.10;;;1.10;;
85807;SDS011;76250;48.718;9.000;2024-02-26T09:27:33;1.30;;;1.20;;
85807;SDS011;76250;48.718;9.000;2024-02-26T09:30:01;1.00;;;1.00;;
85807;SDS011;76250;48.718;9.000;2024-02-26T09:32:30;1.20;;;1.20;;
85807;SDS011;76250;48.718;9.000;2024-02-26T09:34:58;1.10;;;1.10;;
85807;SDS011;76250;48.718;9.000;2024-02-26T09:37:28;1.17;;;1.17;;
85807;SDS011;76250;48.718;9.000;2024-02-26T09:39:56;1.40;;;1.30;;
85807;SDS011;76250;48.718;9.000;2024-02-26T09:42:25;1.10;;;1.10;;
85807;SDS011;76250;48.718;9.000;2024-02-26T09:44:55;1.30;;;1.30;;
85807;SDS011;76250;48.718;9.000;2024-02-26T09:47:24;1.60;;;1.50;;
85807;SDS011;76250;48.718;9.000;2024-02-26T09:49:54;1.70;;;1.60;;
85807;SDS011;76250;48.718;9.000;2024-02-26T09:52:26;1.43;;;1.33;;
85807;SDS011;76250;48.718;9.000;2024-02-26T09:54:58;1.30;;;1.20;;
85807;SDS011;76250;48.718;9.000;2024-02-26T09:57:26;1.00;;;1.00;;
85807;SDS011;76250;48.718;9.000;2024-02-26T09:59:55;1.40;;;1.40;;
85807;SDS011;76250;48.718;9.000;2024-02-26T10:02:34;1.30;;;1.20;;
85807;SDS011;76250;48.718;9.000;2024-02-26T10:05:05;1.93;;;1.20;;
85807;SDS011;76250;48.718;9.000;2024-02-26T10:07:37;2.10;;;1.30;;
85807;SDS011;76250;48.718;9.000;2024-02-26T10:10:05;1.00;;;1.00;;
85807;SDS011;76250;48.718;9.000;2024-02-26T10:12:36;1.07;;;1.07;;
85807;SDS011;76250;48.718;9.000;2024-02-26T10:15:04;1.30;;;1.20;;
85807;SDS011;76250;48.718;9.000;2024-02-26T10:17:33;1.10;;;1.10;;
85807;SDS011;76250;48.718;9.000;2024-02-26T10:20:14;1.20;;;1.20;;
85807;SDS011;76250;48.718;9.000;2024-02-26T10:22:51;1.00;;;1.00;;
85807;SDS011;76250;48.718;9.000;2024-02-26T10:25:19;1.10;;;1.10;;
85807;SDS011;76250;48.718;9.000;2024-02-26T10:27:47;1.20;;;1.20;;
85807;SDS011;76250;48.718;9.000;2024-02-26T10:30:17;2.07;;;1.10;;
85807;SDS011;76250;48.718;9.000;2024-02-26T10:32:50;1.20;;;1.20;;
85807;SDS011;76250;48.718;9.000;2024-02-26T10:35:18;1.13;;;0.97;;
85807;SDS011;76250;48.718;9.000;2024-02-26T10:37:49;1.40;;;1.30;;
85807;SDS011;76250;48.718;9.000;2024-02-26T10:40:18;1.10;;;1.10;;
85807;SDS011;76250;48.718;9.000;2024-02-26T10:42:46;0.90;;;0.90;;
85807;SDS011;76250;48.718;9.000;2024-02-26T10:45:14;1.90;;;1.20;;
85807;SDS011;76250;48.718;9.000;2024-02-26T10:47:42;1.17;;;1.13;;
85807;SDS011;76250;48.718;9.000;2024-02-26T10:50:10;0.90;;;0.90;;
85807;SDS011;76250;48.718;9.000;2024-02-26T10:52:42;0.90;;;0.90;;
85807;SDS011;76250;48.718;9.000;2024-02-26T10:55:15;1.13;;;1.13;;
85807;SDS011;76250;48.718;9.000;2024-02-26T10:57:47;1.10;;;1.10;;
85807;SDS011;76250;48.718;9.000;2024-02-26T11:00:18;1.17;;;1.17;;
85807;SDS011;76250;48.718;9.000;2024-02-26T11:02:46;1.10;;;1.10;;
85807;SDS011;76250;48.718;9.000;2024-02-26T11:05:15;1.13;;;1.13;;
85807;SDS011;76250;48.718;9.000;2024-02-26T11:07:44;1.00;;;1.00;;
85807;SDS011;76250;48.718;9.000;2024-02-26T11:10:14;1.10;;;1.10;;
85807;SDS011;76250;48.718;9.000;2024-02-26T11:12:44;1.00;;;1.00;;
85807;SDS011;76250;48.718;9.000;2024-02-26T11:15:13;0.90;;;0.90;;
85807;SDS011;76250;48.718;9.000;2024-02-26T11:17:41;1.33;;;1.23;;
85807;SDS011;76250;48.718;9.000;2024-02-26T11:20:11;1.10;;;1.10;;
85807;SDS011;76250;48.718;9.000;2024-02-26T11:22:41;1.33;;;1.23;;
85807;SDS011;76250;48.718;9.000;2024-02-26T11:25:09;1.03;;;1.03;;
85807;SDS011;76250;48.718;9.000;2024-02-26T11:27:39;1.17;;;1.10;;
85807;SDS011;76250;48.718;9.000;2024-02-26T11:30:15;1.10;;;1.10;;
85807;SDS011;76250;48.718;9.000;2024-02-26T11:32:47;2.27;;;1.30;;
85807;SDS011;76250;48.718;9.000;2024-02-26T11:35:16;1.23;;;1.23;;
85807;SDS011;76250;48.718;9.000;2024-02-26T11:37:55;1.03;;;1.03;;
85807;SDS011;76250;48.718;9.000;2024-02-26T11:40:25;1.37;;;1.30;;
85807;SDS011;76250;48.718;9.000;2024-02-26T11:42:53;1.20;;;1.10;;
85807;SDS011;76250;48.718;9.000;2024-02-26T11:48:12;1.20;;;1.20;;
85807;SDS011;76250;48.718;9.000;2024-02-26T11:53:21;1.00;;;1.00;;
85807;SDS011;76250;48.718;9.000;2024-02-26T11:58:44;1.50;;;1.30;;
85807;SDS011;76250;48.718;9.000;2024-02-26T12:04:13;1.03;;;1.03;;
85807;SDS011;76250;48.718;9.000;2024-02-26T12:06:46;1.30;;;1.20;;
85807;SDS011;76250;48.718;9.000;2024-02-26T12:09:32;1.20;;;1.20;;
85807;SDS011;76250;48.718;9.000;2024-02-26T12:12:04;1.23;;;1.23;;
85807;SDS011;76250;48.718;9.000;2024-02-26T12:14:37;1.07;;;1.03;;
85807;SDS011;76250;48.718;9.000;2024-02-26T12:17:20;1.27;;;1.20;;
85807;SDS011;76250;48.718;9.000;2024-02-26T12:19:50;1.30;;;1.20;;
85807;SDS011;76250;48.718;9.000;2024-02-26T12:22:20;1.83;;;1.47;;
85807;SDS011;76250;48.718;9.000;2024-02-26T12:24:57;1.83;;;1.20;;
85807;SDS011;76250;48.718;9.000;2024-02-26T12:27:28;1.40;;;1.30;;
85807;SDS011;76250;48.718;9.000;2024-02-26T12:29:56;1.30;;;1.20;;
85807;SDS011;76250;48.718;9.000;2024-02-26T12:32:24;1.20;;;1.20;;
85807;SDS011;76250;48.718;9.000;2024-02-26T12:34:52;1.20;;;1.20;;
85807;SDS011;76250;48.718;9.000;2024-02-26T12:37:20;1.90;;;1.50;;
85807;SDS011;76250;48.718;9.000;2024-02-26T12:39:48;1.47;;;1.40;;
85807;SDS011;76250;48.718;9.000;2024-02-26T12:42:17;1.40;;;1.37;;
85807;SDS011;76250;48.718;9.000;2024-02-26T12:44:45;1.40;;;1.30;;
85807;SDS011;76250;48.718;9.000;2024-02-26T12:47:14;1.10;;;1.10;;
85807;SDS011;76250;48.718;9.000;2024-02-26T12:49:45;1.30;;;1.30;;
85807;SDS011;76250;48.718;9.000;2024-02-26T12:52:16;1.10;;;1.10;;
85807;SDS011;76250;48.718;9.000;2024-02-26T12:54:44;1.20;;;1.20;;
85807;SDS011;76250;48.718;9.000;2024-02-26T12:57:12;1.03;;;1.03;;
85807;SDS011;76250;48.718;9.000;2024-02-26T12:59:40;1.13;;;1.13;;
85807;SDS011;76250;48.718;9.000;2024-02-26T13:02:08;0.90;;;0.90;;
85807;SDS011;76250;48.718;9.000;2024-02-26T13:04:37;1.10;;;1.10;;
85807;SDS011;76250;48.718;9.000;2024-02-26T13:07:06;1.03;;;0.80;;
85807;SDS011;76250;48.718;9.000;2024-02-26T13:09:34;1.00;;;1.00;;
85807;SDS011;76250;48.718;9.000;2024-02-26T13:12:03;1.03;;;0.90;;
85807;SDS011;76250;48.718;9.000;2024-02-26T13:14:33;1.00;;;1.00;;
85807;SDS011;76250;48.718;9.000;2024-02-26T13:17:01;0.80;;;0.80;;
85807;SDS011;76250;48.718;9.000;2024-02-26T13:19:31;0.90;;;0.90;;
85807;SDS011;76250;48.718;9.000;2024-02-26T13:22:03;1.40;;;1.03;;
85807;SDS011;76250;48.718;9.000;2024-02-26T13:24:34;0.90;;;0.90;;
85807;SDS011;76250;48.718;9.000;2024-02-26T13:27:03;0.90;;;0.90;;
85807;SDS011;76250;48.718;9.000;2024-02-26T13:29:34;1.00;;;1.00;;
85807;SDS011;76250;48.718;9.000;2024-02-26T13:32:02;1.10;;;1.00;;
85807;SDS011;76250;48.718;9.000;2024-02-26T13:34:32;1.10;;;1.10;;
85807;SDS011;76250;48.718;9.000;2024-02-26T13:37:01;0.90;;;0.90;;
85807;SDS011;76250;48.718;9.000;2024-02-26T13:39:30;0.90;;;0.90;;
85807;SDS011;76250;48.718;9.000;2024-02-26T13:41:58;0.83;;;0.83;;
85807;SDS011;76250;48.718;9.000;2024-02-26T13:44:27;0.90;;;0.90;;
85807;SDS011;76250;48.718;9.000;2024-02-26T13:46:54;0.90;;;0.90;;
85807;SDS011;76250;48.718;9.000;2024-02-26T13:49:22;1.30;;;1.20;;
85807;SDS011;76250;48.718;9.000;2024-02-26T13:51:51;0.90;;;0.90;;
85807;SDS011;76250;48.718;9.000;2024-02-26T13:54:19;1.17;;;1.10;;
85807;SDS011;76250;48.718;9.000;2024-02-26T13:56:47;0.90;;;0.90;;
85807;SDS011;76250;48.718;9.000;2024-02-26T13:59:16;1.00;;;1.00;;
85807;SDS011;76250;48.718;9.000;2024-02-26T14:01:43;1.00;;;1.00;;
85807;SDS011;76250;48.718;9.000;2024-02-26T14:04:12;1.10;;;1.10;;
85807;SDS011;76250;48.718;9.000;2024-02-26T14:06:40;1.10;;;1.10;;
85807;SDS011;76250;48.718;9.000;2024-02-26T14:09:08;1.20;;;1.10;;
85807;SDS011;76250;48.718;9.000;2024-02-26T14:11:36;1.13;;;1.10;;
85807;SDS011;76250;48.718;9.000;2024-02-26T14:14:07;0.80;;;0.80;;
85807;SDS011;76250;48.718;9.000;2024-02-26T14:16:35;1.20;;;1.10;;
85807;SDS011;76250;48.718;9.000;2024-02-26T14:19:03;0.87;;;0.87;;
85807;SDS011;76250;48.718;9.000;2024-02-26T14:21:31;1.00;;;1.00;;
85807;SDS011;76250;48.718;9.000;2024-02-26T14:23:59;0.90;;;0.90;;
85807;SDS011;76250;48.718;9.000;2024-02-26T14:26:27;1.00;;;1.00;;
85807;SDS011;76250;48.718;9.000;2024-02-26T14:28:57;1.43;;;1.33;;
85807;SDS011;76250;48.718;9.000;2024-02-26T14:31:25;1.30;;;1.20;;
85807;SDS011;76250;48.718;9.000;2024-02-26T14:33:53;1.40;;;1.30;;
85807;SDS011;76250;48.718;9.000;2024-02-26T14:36:21;1.67;;;1.57;;
85807;SDS011;76250;48.718;9.000;2024-02-26T14:38:50;1.33;;;1.27;;
85807;SDS011;76250;48.718;9.000;2024-02-26T14:41:18;1.50;;;1.40;;
85807;SDS011;76250;48.718;9.000;2024-02-26T14:43:46;1.23;;;1.20;;
85807;SDS011;76250;48.718;9.000;2024-02-26T14:46:14;1.20;;;1.20;;
85807;SDS011;76250;48.718;9.000;2024-02-26T14:48:42;1.47;;;1.37;;
85807;SDS011;76250;48.718;9.000;2024-02-26T14:51:10;2.00;;;1.80;;
85807;SDS011;76250;48.718;9.000;2024-02-26T14:53:39;1.60;;;1.50;;
85807;SDS011;76250;48.718;9.000;2024-02-26T14:56:07;1.90;;;1.30;;
85807;SDS011;76250;48.718;9.000;2024-02-26T14:58:37;1.60;;;1.50;;
85807;SDS011;76250;48.718;9.000;2024-02-26T15:01:05;1.80;;;1.70;;
85807;SDS011;76250;48.718;9.000;2024-02-26T15:03:34;2.27;;;1.40;;
85807;SDS011;76250;48.718;9.000;2024-02-26T15:06:03;1.83;;;1.73;;
85807;SDS011;76250;48.718;9.000;2024-02-26T15:08:32;3.90;;;1.63;;